createdAt,value
2024-02-26T00:01:59.339Z,86.61
2024-02-26T00:04:46.214Z,86.45
2024-02-26T00:07:33.393Z,86.96
2024-02-26T00:10:20.196Z,87.09
2024-02-26T00:13:06.994Z,86.45
2024-02-26T00:15:53.843Z,87.82
2024-02-26T00:18:40.772Z,87.44
2024-02-26T00:21:27.700Z,86.58
2024-02-26T00:24:14.756Z,87.46
2024-02-26T00:27:01.652Z,86.52
2024-02-26T00:29:48.481Z,87.90
2024-02-26T00:32:23.702Z,87.74
2024-02-26T00:34:51.771Z,87.71
2024-02-26T00:37:38.705Z,86.87
2024-02-26T00:40:26.073Z,87.76
2024-02-26T00:43:12.881Z,87.00
2024-02-26T00:45:59.729Z,87.21
2024-02-26T00:48:46.692Z,86.70
2024-02-26T00:51:33.815Z,86.38
2024-02-26T00:54:20.835Z,87.42
2024-02-26T00:57:07.726Z,86.47
2024-02-26T00:59:54.570Z,87.14
2024-02-26T01:02:41.653Z,86.76
2024-02-26T01:05:32.667Z,87.43
2024-02-26T01:08:19.561Z,87.19
2024-02-26T01:11:06.509Z,87.80
2024-02-26T01:13:53.448Z,87.66
2024-02-26T01:16:40.542Z,87.36
2024-02-26T01:19:27.599Z,86.64
2024-02-26T01:22:14.589Z,86.97
2024-02-26T01:25:01.474Z,87.05
2024-02-26T01:27:48.312Z,87.44
2024-02-26T01:30:35.296Z,87.01
2024-02-26T01:33:22.421Z,87.07
2024-02-26T01:36:09.335Z,86.50
2024-02-26T01:38:56.259Z,86.45
2024-02-26T01:41:43.262Z,87.28
2024-02-26T01:44:33.639Z,87.70
2024-02-26T01:47:21.507Z,86.69
2024-02-26T01:50:08.575Z,86.98
2024-02-26T01:52:56.138Z,86.30
2024-02-26T01:55:45.264Z,86.99
2024-02-26T01:58:32.710Z,87.53
2024-02-26T02:01:20.567Z,87.04
2024-02-26T02:04:07.501Z,86.79
2024-02-26T02:06:54.435Z,86.27
2024-02-26T02:09:41.688Z,86.86
2024-02-26T02:12:29.401Z,87.29
2024-02-26T02:15:16.274Z,86.32
2024-02-26T02:18:03.374Z,87.09
2024-02-26T02:20:54.322Z,86.98
2024-02-26T02:23:41.332Z,86.79
2024-02-26T02:26:28.339Z,86.35
2024-02-26T02:29:15.249Z,87.00
2024-02-26T02:32:02.659Z,86.86
2024-02-26T02:34:50.855Z,87.14
2024-02-26T02:37:38.032Z,86.27
2024-02-26T02:40:25.470Z,86.98
2024-02-26T02:43:12.354Z,86.06
2024-02-26T02:45:59.181Z,87.39
2024-02-26T02:48:46.315Z,85.93
2024-02-26T02:51:33.224Z,87.39
2024-02-26T02:54:20.109Z,86.02
2024-02-26T02:57:07.151Z,86.17
2024-02-26T02:59:54.028Z,87.16
2024-02-26T03:02:40.962Z,86.02
2024-02-26T03:05:28.317Z,86.46
2024-02-26T03:08:15.222Z,86.21
2024-02-26T03:11:02.090Z,85.96
2024-02-26T03:13:49.006Z,86.23
2024-02-26T03:16:35.962Z,86.25
2024-02-26T03:19:23.180Z,86.36
2024-02-26T03:22:10.469Z,86.57
2024-02-26T03:24:57.469Z,86.62
2024-02-26T03:27:44.384Z,86.80
2024-02-26T03:30:31.567Z,86.27
2024-02-26T03:33:18.483Z,87.16
2024-02-26T03:36:05.412Z,87.16
2024-02-26T03:38:52.339Z,86.07
2024-02-26T03:41:39.188Z,87.06
2024-02-26T03:44:25.990Z,86.20
2024-02-26T03:47:12.837Z,87.11
2024-02-26T03:49:59.658Z,85.89
2024-02-26T03:52:46.476Z,85.73
2024-02-26T03:55:33.367Z,85.81
2024-02-26T03:58:20.196Z,86.95
2024-02-26T04:01:04.901Z,86.74
2024-02-26T04:03:51.806Z,86.06
2024-02-26T04:06:41.569Z,86.85
2024-02-26T04:09:28.522Z,87.00
2024-02-26T04:12:15.562Z,86.53
2024-02-26T04:15:02.550Z,87.09
2024-02-26T04:17:49.447Z,85.81
2024-02-26T04:20:36.872Z,86.93
2024-02-26T04:23:25.258Z,86.16
2024-02-26T04:26:12.129Z,86.77
2024-02-26T04:28:58.921Z,85.89
2024-02-26T04:31:45.887Z,86.65
2024-02-26T04:34:32.847Z,86.06
2024-02-26T04:37:19.740Z,86.92
2024-02-26T04:40:06.626Z,86.48
2024-02-26T04:42:53.447Z,86.68
2024-02-26T04:45:40.325Z,85.52
2024-02-26T04:48:27.633Z,85.62
2024-02-26T04:51:14.693Z,86.03
2024-02-26T04:54:01.646Z,85.58
2024-02-26T04:56:48.524Z,86.52
2024-02-26T04:59:35.374Z,85.88
2024-02-26T05:02:22.286Z,86.80
2024-02-26T05:05:09.219Z,86.19
2024-02-26T05:08:01.812Z,85.98
2024-02-26T05:10:48.693Z,86.10
2024-02-26T05:13:35.582Z,86.64
2024-02-26T05:16:22.461Z,86.03
2024-02-26T05:19:09.457Z,86.63
2024-02-26T05:21:56.318Z,85.68
2024-02-26T05:24:43.106Z,86.76
2024-02-26T05:27:31.264Z,85.73
2024-02-26T05:30:18.228Z,85.89
2024-02-26T05:33:05.143Z,86.35
2024-02-26T05:35:52.240Z,85.82
2024-02-26T05:38:39.095Z,86.25
2024-02-26T05:41:25.975Z,85.87
2024-02-26T05:44:13.685Z,86.38
2024-02-26T05:47:00.604Z,85.79
2024-02-26T05:49:47.506Z,86.13
2024-02-26T05:52:34.396Z,86.65
2024-02-26T05:55:21.213Z,86.71
2024-02-26T05:58:08.254Z,85.91
2024-02-26T06:00:55.132Z,86.65
2024-02-26T06:03:42.235Z,86.24
2024-02-26T06:06:29.184Z,86.51
2024-02-26T06:09:16.206Z,86.64
2024-02-26T06:12:03.200Z,85.94
2024-02-26T06:14:50.112Z,86.02
2024-02-26T06:17:37.013Z,86.05
2024-02-26T06:20:24.008Z,86.40
2024-02-26T06:23:12.163Z,86.11
2024-02-26T06:25:59.058Z,85.55
2024-02-26T06:28:45.878Z,85.76
2024-02-26T06:31:32.727Z,86.46
2024-02-26T06:34:19.700Z,86.10
2024-02-26T06:37:06.776Z,86.38
2024-02-26T06:39:34.120Z,85.71
2024-02-26T06:42:04.178Z,85.64
2024-02-26T06:44:51.012Z,85.84
2024-02-26T06:47:38.282Z,86.55
2024-02-26T06:50:25.459Z,85.72
2024-02-26T06:53:12.293Z,85.69
2024-02-26T06:55:59.126Z,85.65
2024-02-26T06:58:45.938Z,85.62
2024-02-26T07:01:34.033Z,86.49
2024-02-26T07:04:21.107Z,85.65
2024-02-26T07:07:08.608Z,85.52
2024-02-26T07:09:55.576Z,85.44
2024-02-26T07:12:42.423Z,86.22
2024-02-26T07:15:30.889Z,85.89
2024-02-26T07:17:58.017Z,85.62
2024-02-26T07:20:44.957Z,86.46
2024-02-26T07:23:31.868Z,86.43
2024-02-26T07:26:18.784Z,86.08
2024-02-26T07:29:05.673Z,85.56
2024-02-26T07:31:52.646Z,85.65
2024-02-26T07:34:39.695Z,86.00
2024-02-26T07:37:26.746Z,86.06
2024-02-26T07:40:13.664Z,85.54
2024-02-26T07:43:00.606Z,85.39
2024-02-26T07:45:47.553Z,85.77
2024-02-26T07:48:34.506Z,86.21
2024-02-26T07:51:21.499Z,85.50
2024-02-26T07:54:08.439Z,86.73
2024-02-26T07:56:55.463Z,86.20
2024-02-26T07:59:42.442Z,86.43
2024-02-26T08:02:29.301Z,85.49
2024-02-26T08:04:56.271Z,86.26
2024-02-26T08:07:43.093Z,85.90
2024-02-26T08:10:33.198Z,86.47
2024-02-26T08:13:20.627Z,86.29
2024-02-26T08:16:07.437Z,85.75
2024-02-26T08:18:54.404Z,85.54
2024-02-26T08:21:41.267Z,86.07
2024-02-26T08:24:28.505Z,86.39
2024-02-26T08:27:15.688Z,85.88
2024-02-26T08:30:02.711Z,85.62
2024-02-26T08:32:52.071Z,85.43
2024-02-26T08:35:40.244Z,85.85
2024-02-26T08:38:27.513Z,86.34
2024-02-26T08:41:14.361Z,86.24
2024-02-26T08:44:01.182Z,85.71
2024-02-26T08:46:48.004Z,85.27
2024-02-26T08:49:35.036Z,85.32
2024-02-26T08:52:22.023Z,86.56
2024-02-26T08:55:08.967Z,85.85
2024-02-26T08:57:56.100Z,85.56
2024-02-26T09:00:43.003Z,86.05
2024-02-26T09:03:29.964Z,85.96
2024-02-26T09:06:17.049Z,85.70
2024-02-26T09:09:04.038Z,85.03
2024-02-26T09:11:51.009Z,85.45
2024-02-26T09:14:38.174Z,86.04
2024-02-26T09:17:25.193Z,85.39
2024-02-26T09:20:12.369Z,86.59
2024-02-26T09:22:59.228Z,85.24
2024-02-26T09:25:46.040Z,85.85
2024-02-26T09:28:33.063Z,86.19
2024-02-26T09:31:19.872Z,85.46
2024-02-26T09:34:06.956Z,85.87
2024-02-26T09:36:58.293Z,86.29
2024-02-26T09:39:50.199Z,86.25
2024-02-26T09:42:39.985Z,85.37
2024-02-26T09:45:30.624Z,85.32
2024-02-26T09:48:18.209Z,86.31
2024-02-26T09:51:05.253Z,86.11
2024-02-26T09:53:53.431Z,86.32
2024-02-26T09:56:49.366Z,86.32
2024-02-26T09:59:43.695Z,85.92
2024-02-26T10:02:34.119Z,85.26
2024-02-26T10:05:24.216Z,85.92
2024-02-26T10:08:12.138Z,84.93
2024-02-26T10:11:00.237Z,84.85
2024-02-26T10:13:47.124Z,85.02
2024-02-26T10:16:34.522Z,85.81
2024-02-26T10:19:21.617Z,85.92
2024-02-26T10:22:08.444Z,85.97
2024-02-26T10:24:54.448Z,85.69
2024-02-26T10:27:42.102Z,84.74
2024-02-26T10:30:40.427Z,84.74
2024-02-26T10:33:29.551Z,84.75
2024-02-26T10:36:17.738Z,84.90
2024-02-26T10:39:04.773Z,84.97
2024-02-26T10:41:54.570Z,85.09
2024-02-26T10:44:41.448Z,84.92
2024-02-26T10:47:29.008Z,85.55
2024-02-26T10:50:17.101Z,84.38
2024-02-26T10:53:04.309Z,84.90
2024-02-26T10:55:52.247Z,84.16
2024-02-26T10:58:40.127Z,85.08
2024-02-26T11:01:27.433Z,84.13
2024-02-26T11:04:14.949Z,85.06
2024-02-26T11:07:01.912Z,84.34
2024-02-26T11:09:49.351Z,84.53
2024-02-26T11:12:37.114Z,84.07
2024-02-26T11:15:24.733Z,84.20
2024-02-26T11:18:13.826Z,85.02
2024-02-26T11:20:42.736Z,84.95
2024-02-26T11:23:29.645Z,84.04
2024-02-26T11:26:19.712Z,84.05
2024-02-26T11:29:07.444Z,83.91
2024-02-26T11:31:54.971Z,84.72
2024-02-26T11:34:42.137Z,85.02
2024-02-26T11:37:39.986Z,85.03
2024-02-26T11:40:35.524Z,85.31
2024-02-26T11:43:22.535Z,84.82
2024-02-26T11:46:10.885Z,85.35
2024-02-26T11:48:58.140Z,84.60
2024-02-26T11:51:47.339Z,84.76
2024-02-26T11:55:20.401Z,84.39
2024-02-26T11:58:07.287Z,83.78
2024-02-26T12:00:54.152Z,84.42
2024-02-26T12:03:41.998Z,83.88
2024-02-26T12:06:29.328Z,85.29
2024-02-26T12:09:17.495Z,84.53
2024-02-26T12:12:04.467Z,83.75
2024-02-26T12:14:54.672Z,83.81
2024-02-26T12:17:43.590Z,83.72
2024-02-26T12:20:31.857Z,84.67
2024-02-26T12:23:19.256Z,83.95
2024-02-26T12:26:08.657Z,83.74
2024-02-26T12:28:56.555Z,83.71
2024-02-26T12:31:43.339Z,84.80
2024-02-26T12:34:30.821Z,84.29
2024-02-26T12:37:17.939Z,83.63
2024-02-26T12:40:05.431Z,83.59
2024-02-26T12:42:53.909Z,84.63
2024-02-26T12:45:40.763Z,85.00
2024-02-26T12:48:28.389Z,84.13
2024-02-26T12:51:15.582Z,83.81
2024-02-26T12:54:02.787Z,84.44
2024-02-26T12:56:51.651Z,84.22
2024-02-26T12:59:38.490Z,84.28
2024-02-26T13:02:26.035Z,84.82
2024-02-26T13:05:13.130Z,83.36
2024-02-26T13:08:06.113Z,84.37
2024-02-26T13:10:58.602Z,84.62
2024-02-26T13:13:45.552Z,84.18
2024-02-26T13:16:36.439Z,83.34
2024-02-26T13:19:32.367Z,84.00
2024-02-26T13:22:28.600Z,84.04
2024-02-26T13:25:17.240Z,84.07
2024-02-26T13:28:04.116Z,83.41
2024-02-26T13:30:50.967Z,83.97
2024-02-26T13:33:38.077Z,84.67
2024-02-26T13:36:25.513Z,83.76
2024-02-26T13:39:14.020Z,83.69
2024-02-26T13:42:01.032Z,84.76
2024-02-26T13:44:48.071Z,84.53
2024-02-26T13:47:35.145Z,84.62
2024-02-26T13:50:22.738Z,84.09
2024-02-26T13:53:09.612Z,83.73
2024-02-26T13:55:37.482Z,84.17
2024-02-26T13:58:05.097Z,84.21
2024-02-26T14:00:52.273Z,84.27
2024-02-26T14:03:20.406Z,82.75
2024-02-26T14:05:48.702Z,83.84
2024-02-26T14:08:36.235Z,83.67
2024-02-26T14:11:23.134Z,83.17
2024-02-26T14:14:10.049Z,83.35
2024-02-26T14:16:57.378Z,83.05
2024-02-26T14:19:44.405Z,83.58
2024-02-26T14:22:34.790Z,82.45
2024-02-26T14:25:21.648Z,82.46
2024-02-26T14:28:12.668Z,83.87
2024-02-26T14:31:04.004Z,82.65
2024-02-26T14:33:52.752Z,82.38
2024-02-26T14:36:42.144Z,83.92
2024-02-26T14:39:29.204Z,83.79
2024-02-26T14:42:16.651Z,82.79
2024-02-26T14:45:03.623Z,82.81
2024-02-26T14:47:50.565Z,82.92
2024-02-26T14:50:37.516Z,83.13
2024-02-26T14:53:24.519Z,82.27
2024-02-26T14:56:11.398Z,83.30
2024-02-26T14:58:59.377Z,83.38
2024-02-26T15:01:47.974Z,82.33
2024-02-26T15:04:35.315Z,82.34
2024-02-26T15:07:22.436Z,83.32
2024-02-26T15:10:09.436Z,83.50
2024-02-26T15:12:56.342Z,82.31
2024-02-26T15:15:43.421Z,83.73
2024-02-26T15:18:30.476Z,82.25
2024-02-26T15:21:17.619Z,83.50
2024-02-26T15:23:58.802Z,82.24
2024-02-26T15:26:32.026Z,82.60
2024-02-26T15:28:59.030Z,83.78
2024-02-26T15:31:25.916Z,83.85
2024-02-26T15:33:53.151Z,83.78
2024-02-26T15:36:20.270Z,83.88
2024-02-26T15:38:47.189Z,83.27
2024-02-26T15:41:15.095Z,83.40
2024-02-26T15:43:42.654Z,82.58
2024-02-26T15:46:09.740Z,83.90
2024-02-26T15:48:39.865Z,83.21
2024-02-26T15:51:07.025Z,83.03
2024-02-26T15:53:34.066Z,83.07
2024-02-26T15:56:01.660Z,82.82
2024-02-26T15:58:28.696Z,82.56
2024-02-26T16:00:56.807Z,83.81
2024-02-26T16:03:26.354Z,83.09
2024-02-26T16:05:53.888Z,82.67
2024-02-26T16:08:43.288Z,83.84
2024-02-26T16:11:30.163Z,83.37
2024-02-26T16:14:34.452Z,83.86
2024-02-26T16:17:39.402Z,83.43
2024-02-26T16:20:27.695Z,82.84
2024-02-26T16:23:14.609Z,82.93
2024-02-26T16:26:01.474Z,84.01
2024-02-26T16:28:48.293Z,83.56
2024-02-26T16:31:35.153Z,83.10
2024-02-26T16:34:22.204Z,83.94
2024-02-26T16:37:09.165Z,82.98
2024-02-26T16:39:57.983Z,83.84
2024-02-26T16:42:44.830Z,82.88
2024-02-26T16:45:31.810Z,83.97
2024-02-26T16:48:18.938Z,82.70
2024-02-26T16:51:05.926Z,83.69
2024-02-26T16:53:52.780Z,82.64
2024-02-26T16:56:39.741Z,83.59
2024-02-26T16:59:26.635Z,83.75
2024-02-26T17:02:13.533Z,83.07
2024-02-26T17:05:01.252Z,83.50
2024-02-26T17:07:48.177Z,82.93
2024-02-26T17:10:35.302Z,83.83
2024-02-26T17:13:22.202Z,83.78
2024-02-26T17:16:09.137Z,83.13
2024-02-26T17:18:56.135Z,83.15
2024-02-26T17:21:44.239Z,82.96
2024-02-26T17:24:31.211Z,83.91
2024-02-26T17:27:18.178Z,82.95
2024-02-26T17:30:05.111Z,84.05
2024-02-26T17:32:52.125Z,82.90
2024-02-26T17:35:39.076Z,83.86
2024-02-26T17:38:25.908Z,83.57
2024-02-26T17:41:13.216Z,83.33
2024-02-26T17:44:00.145Z,82.95
2024-02-26T17:46:47.017Z,82.91
2024-02-26T17:49:34.194Z,83.67
2024-02-26T17:52:21.845Z,83.01
2024-02-26T17:55:08.710Z,83.54
2024-02-26T17:57:55.674Z,83.45
2024-02-26T18:00:42.620Z,83.28
2024-02-26T18:03:29.592Z,83.50
2024-02-26T18:06:16.602Z,83.54
2024-02-26T18:09:03.653Z,83.27
2024-02-26T18:11:50.506Z,83.56
2024-02-26T18:14:37.474Z,83.29
2024-02-26T18:17:24.552Z,83.22
2024-02-26T18:20:11.499Z,83.56
2024-02-26T18:22:58.585Z,83.41
2024-02-26T18:25:45.576Z,83.64
2024-02-26T18:28:32.483Z,83.31
2024-02-26T18:31:19.307Z,83.67
2024-02-26T18:34:06.398Z,83.70
2024-02-26T18:36:53.357Z,83.60
2024-02-26T18:39:40.398Z,83.29
2024-02-26T18:42:27.643Z,83.05
2024-02-26T18:45:14.574Z,83.38
2024-02-26T18:48:01.580Z,83.09
2024-02-26T18:50:49.197Z,83.17
2024-02-26T18:53:36.088Z,83.30
2024-02-26T18:56:23.055Z,83.28
2024-02-26T18:59:09.979Z,83.62
2024-02-26T19:01:56.785Z,82.90
2024-02-26T19:04:43.680Z,83.26
2024-02-26T19:07:30.800Z,83.24
2024-02-26T19:10:17.866Z,83.35
2024-02-26T19:13:07.304Z,83.35
2024-02-26T19:15:55.581Z,83.31
2024-02-26T19:18:42.468Z,83.07
2024-02-26T19:21:29.425Z,82.99
2024-02-26T19:24:16.667Z,83.36
2024-02-26T19:26:45.935Z,83.27
2024-02-26T19:29:32.808Z,83.36
2024-02-26T19:32:19.697Z,83.13
2024-02-26T19:35:06.665Z,83.22
2024-02-26T19:37:54.143Z,83.12
2024-02-26T19:40:40.937Z,83.27
2024-02-26T19:43:27.898Z,83.53
2024-02-26T19:46:15.207Z,83.58
2024-02-26T19:49:02.334Z,83.35
2024-02-26T19:51:49.363Z,83.36
2024-02-26T19:54:36.741Z,83.23
2024-02-26T19:57:23.687Z,83.58
2024-02-26T20:00:10.571Z,83.37
2024-02-26T20:03:01.203Z,83.14
2024-02-26T20:05:48.268Z,83.20
2024-02-26T20:08:35.284Z,83.12
2024-02-26T20:11:22.298Z,83.08
2024-02-26T20:14:09.151Z,83.14
2024-02-26T20:16:56.010Z,82.99
2024-02-26T20:19:42.923Z,83.26
2024-02-26T20:22:31.832Z,83.31
2024-02-26T20:25:18.702Z,83.06
2024-02-26T20:28:05.516Z,83.01
2024-02-26T20:30:52.456Z,83.26
2024-02-26T20:33:39.564Z,83.20
2024-02-26T20:36:26.939Z,83.20
2024-02-26T20:39:13.800Z,83.30
2024-02-26T20:42:00.690Z,83.19
2024-02-26T20:44:47.701Z,83.02
2024-02-26T20:47:35.982Z,83.33
2024-02-26T20:50:22.923Z,83.48
2024-02-26T20:53:13.683Z,83.11
2024-02-26T20:56:00.976Z,83.46
2024-02-26T20:58:47.823Z,83.36
2024-02-26T21:01:34.675Z,83.43
2024-02-26T21:04:24.506Z,82.98
2024-02-26T21:07:11.961Z,83.33
2024-02-26T21:09:58.886Z,83.42
2024-02-26T21:12:46.186Z,83.30
2024-02-26T21:15:33.128Z,82.90
2024-02-26T21:18:20.170Z,82.92
2024-02-26T21:21:07.151Z,83.14
2024-02-26T21:23:54.154Z,83.17
2024-02-26T21:26:41.027Z,83.18
2024-02-26T21:29:27.922Z,83.27
2024-02-26T21:32:14.776Z,83.31
2024-02-26T21:35:02.045Z,82.80
2024-02-26T21:37:48.987Z,82.50
2024-02-26T21:40:35.827Z,82.62
2024-02-26T21:43:22.698Z,82.87
2024-02-26T21:46:09.484Z,83.18
2024-02-26T21:48:56.668Z,82.55
2024-02-26T21:51:43.778Z,83.30
2024-02-26T21:54:32.126Z,83.24
2024-02-26T21:57:19.214Z,83.21
2024-02-26T22:00:07.727Z,83.32
2024-02-26T22:03:00.469Z,82.66
2024-02-26T22:05:47.491Z,82.69
2024-02-26T22:08:34.617Z,82.67
2024-02-26T22:11:21.497Z,82.96
2024-02-26T22:14:08.462Z,82.87
2024-02-26T22:16:55.339Z,82.44
2024-02-26T22:19:42.347Z,83.14
2024-02-26T22:22:30.492Z,82.96
2024-02-26T22:25:17.376Z,82.61
2024-02-26T22:28:04.684Z,82.54
2024-02-26T22:30:51.500Z,83.13
2024-02-26T22:33:38.529Z,83.14
2024-02-26T22:36:26.007Z,82.76
2024-02-26T22:39:12.858Z,82.43
2024-02-26T22:42:03.154Z,83.29
2024-02-26T22:44:50.088Z,83.12
2024-02-26T22:47:37.020Z,82.31
2024-02-26T22:50:24.182Z,82.77
2024-02-26T22:53:11.154Z,83.06
2024-02-26T22:55:58.143Z,83.23
2024-02-26T22:58:44.970Z,82.67
2024-02-26T23:01:31.799Z,82.69
2024-02-26T23:04:18.670Z,82.43
2024-02-26T23:07:05.570Z,82.38
2024-02-26T23:09:52.475Z,82.96
2024-02-26T23:12:39.441Z,83.01
2024-02-26T23:15:26.472Z,83.00
2024-02-26T23:18:16.778Z,83.25
2024-02-26T23:21:03.897Z,82.63
2024-02-26T23:23:50.948Z,83.25
2024-02-26T23:26:37.828Z,82.90
2024-02-26T23:29:24.699Z,82.14
2024-02-26T23:32:11.549Z,82.23
2024-02-26T23:34:59.027Z,83.16
2024-02-26T23:37:45.938Z,82.68
2024-02-26T23:40:32.965Z,82.41
2024-02-26T23:43:20.121Z,83.05
2024-02-26T23:46:07.107Z,82.15
2024-02-26T23:48:54.054Z,82.16
2024-02-26T23:51:41.009Z,82.35
2024-02-26T23:54:27.929Z,82.12
2024-02-26T23:57:14.799Z,82.98
